Time,TemperatureF,DewpointF,PressureIn,WindDirection,WindDirectionDegrees,WindSpeedMPH,WindSpeedGustMPH,Humidity,HourlyPrecipIn,Conditions,Clouds,dailyrainin,SolarRadiationWatts/m^2,SoftwareType,DateUTC
2013-07-20 04:00:00,64.0,8.0,-100.00,South,182,2.0,4.0,11,-99.99,,,-99.99,-0.200000,,2013-07-20 11:00:00,
2013-07-20 05:00:00,64.0,2.0,-100.00,North,-999,-999.0,-999.0,8,-99.99,,,-99.99,,,2013-07-20 12:00:00,
2013-07-20 05:52:00,64.0,2.0,-100.00,North,-999,-999.0,-999.0,8,-99.99,,,-99.99,,,2013-07-20 12:52:00,
2013-07-20 06:00:00,63.0,1.0,-100.00,SW,221,2.0,3.0,8,-99.99,,,-99.99,14.700000,,2013-07-20 13:00:00,
2013-07-20 07:00:00,66.0,5.0,-100.00,South,184,1.0,3.0,9,-99.99,,,-99.99,131.699997,,2013-07-20 14:00:00,
2013-07-20 08:00:00,67.0,13.0,-100.00,WSW,243,1.0,3.0,12,-99.99,,,0.00,233.600006,,2013-07-20 15:00:00,
2013-07-20 09:00:00,70.0,15.0,-100.00,North,-999,-999.0,-999.0,12,-99.99,,,0.00,,,2013-07-20 16:00:00,
2013-07-20 09:52:00,70.0,15.0,-100.00,North,-999,-999.0,-999.0,12,-99.99,,,0.00,,,2013-07-20 16:52:00,
2013-07-20 10:00:00,70.0,30.0,-100.00,North,360,2.0,3.0,22,-99.99,,,-99.99,675.799988,,2013-07-20 17:00:00,
2013-07-20 10:53:00,70.0,30.0,-100.00,North,360,2.0,3.0,22,-99.99,,,-99.99,675.799988,,2013-07-20 17:53:00,
2013-07-20 11:00:00,71.0,33.0,-100.00,North,352,2.0,4.0,24,-99.99,,,0.00,805.500000,,2013-07-20 18:00:00,
2013-07-20 12:00:00,72.0,31.0,-100.00,SSW,203,3.0,5.0,22,-99.99,,,-99.99,893.900024,,2013-07-20 19:00:00,
2013-07-20 13:00:00,73.0,28.0,-100.00,WNW,303,2.0,5.0,19,-99.99,,,-99.99,944.400024,,2013-07-20 20:00:00,
2013-07-20 14:56:00,75.0,28.0,-100.00,NNW,336,2.0,4.0,18,-99.99,,,-99.99,944.400024,,2013-07-20 21:56:00,
2013-07-20 15:00:00,76.0,30.0,-100.00,West,266,2.0,5.0,18,-99.99,,,-99.99,891.700012,,2013-07-20 22:00:00,
2013-07-20 16:00:00,75.0,29.0,-100.00,West,274,2.0,4.0,18,-99.99,,,0.00,797.099976,,2013-07-20 23:00:00,
2013-07-20 16:56:00,75.0,29.0,-100.00,West,274,2.0,4.0,18,-99.99,,,0.00,797.099976,,2013-07-20 23:56:00,
2013-07-20 17:00:00,75.0,-99.9,-100.00,North,-999,-999.0,-999.0,-999,-99.99,,,-99.99,,,2013-07-21 00:00:00,
2013-07-20 18:00:00,73.0,27.0,-100.00,East,91,3.0,5.0,18,-99.99,,,-99.99,490.299988,,2013-07-21 01:00:00,
2013-07-20 18:59:00,73.0,27.0,-100.00,East,91,3.0,5.0,18,-99.99,,,-99.99,490.299988,,2013-07-21 01:59:00,
2013-07-20 20:00:00,66.0,26.0,-100.00,South,170,3.0,6.0,22,-99.99,,,0.00,104.800003,,2013-07-21 03:00:00,
2013-07-20 20:59:00,66.0,26.0,-100.00,South,170,3.0,6.0,22,-99.99,,,0.00,104.800003,,2013-07-21 03:59:00,
2013-07-20 21:00:00,62.0,28.0,-100.00,SW,225,2.0,5.0,27,-99.99,,,0.00,18.700001,,2013-07-21 04:00:00,
2013-07-20 21:53:00,62.0,28.0,-100.00,SW,225,2.0,5.0,27,-99.99,,,0.00,18.700001,,2013-07-21 04:53:00,
2013-07-20 22:00:00,62.0,25.0,-100.00,SSW,211,5.0,7.0,24,-99.99,,,0.00,0.200000,,2013-07-21 05:00:00,
2013-07-20 22:52:00,62.0,25.0,-100.00,SSW,211,5.0,7.0,24,-99.99,,,0.00,0.200000,,2013-07-21 05:52:00,
2013-07-20 23:00:00,62.0,23.0,-100.00,SW,225,5.0,9.0,22,-99.99,,,0.00,-0.200000,,2013-07-21 06:00:00,